sensor_id;sensor_type;location;lat;lon;timestamp;noise_LAeq;noise_LA_min;noise_LA_max;noise_LA01;noise_LA95
70077;Laerm;57448;51.490;5.436;2022-12-18T00:00:16;39.15;35.13;62.07;;
70077;Laerm;57448;51.490;5.436;2022-12-18T00:03:07;38.99;35.29;51.78;;
70077;Laerm;57448;51.490;5.436;2022-12-18T00:05:57;38.81;35.47;44.21;;
70077;Laerm;57448;51.490;5.436;2022-12-18T00:08:50;44.13;35.30;76.88;;
70077;Laerm;57448;51.490;5.436;2022-12-18T00:11:41;40.16;34.76;67.98;;
70077;Laerm;57448;51.490;5.436;2022-12-18T00:14:32;38.80;35.38;47.44;;
70077;Laerm;57448;51.490;5.436;2022-12-18T00:17:22;38.07;34.52;41.80;;
70077;Laerm;57448;51.490;5.436;2022-12-18T00:20:13;45.37;33.64;73.60;;
70077;Laerm;57448;51.490;5.436;2022-12-18T00:23:04;37.41;33.94;60.45;;
70077;Laerm;57448;51.490;5.436;2022-12-18T00:25:58;37.15;33.94;45.14;;
70077;Laerm;57448;51.490;5.436;2022-12-18T00:28:49;37.39;34.16;44.97;;
70077;Laerm;57448;51.490;5.436;2022-12-18T00:31:40;37.10;34.07;42.13;;
70077;Laerm;57448;51.490;5.436;2022-12-18T00:34:31;37.09;33.31;41.09;;
70077;Laerm;57448;51.490;5.436;2022-12-18T00:37:21;36.22;33.33;49.38;;
70077;Laerm;57448;51.490;5.436;2022-12-18T00:40:12;37.16;33.85;55.66;;
70077;Laerm;57448;51.490;5.436;2022-12-18T00:43:04;36.76;33.41;46.85;;
70077;Laerm;57448;51.490;5.436;2022-12-18T00:45:54;37.58;33.63;45.15;;
70077;Laerm;57448;51.490;5.436;2022-12-18T00:48:44;36.92;33.83;43.54;;
70077;Laerm;57448;51.490;5.436;2022-12-18T00:51:35;37.46;33.95;48.06;;
70077;Laerm;57448;51.490;5.436;2022-12-18T00:54:26;37.59;33.62;50.50;;
70077;Laerm;57448;51.490;5.436;2022-12-18T00:57:16;36.88;32.69;45.31;;
70077;Laerm;57448;51.490;5.436;2022-12-18T01:00:11;36.79;32.01;46.51;;
70077;Laerm;57448;51.490;5.436;2022-12-18T01:03:03;37.79;33.15;61.09;;
70077;Laerm;57448;51.490;5.436;2022-12-18T01:05:54;36.67;33.40;44.81;;
70077;Laerm;57448;51.490;5.436;2022-12-18T01:08:44;35.61;32.72;39.53;;
70077;Laerm;57448;51.490;5.436;2022-12-18T01:11:35;35.56;32.80;38.95;;
70077;Laerm;57448;51.490;5.436;2022-12-18T01:14:25;35.40;32.39;44.50;;
70077;Laerm;57448;51.490;5.436;2022-12-18T01:17:17;36.81;31.72;66.36;;
70077;Laerm;57448;51.490;5.436;2022-12-18T01:20:09;35.61;32.43;43.22;;
70077;Laerm;57448;51.490;5.436;2022-12-18T01:23:00;34.82;32.11;39.01;;
70077;Laerm;57448;51.490;5.436;2022-12-18T01:25:50;36.07;33.63;43.02;;
70077;Laerm;57448;51.490;5.436;2022-12-18T01:28:41;36.22;33.07;42.71;;
70077;Laerm;57448;51.490;5.436;2022-12-18T01:31:33;35.42;32.74;41.55;;
70077;Laerm;57448;51.490;5.436;2022-12-18T01:34:25;36.33;32.93;46.00;;
70077;Laerm;57448;51.490;5.436;2022-12-18T01:37:15;35.35;32.43;40.86;;
70077;Laerm;57448;51.490;5.436;2022-12-18T01:40:07;35.95;32.10;43.69;;
70077;Laerm;57448;51.490;5.436;2022-12-18T01:42:58;35.99;32.72;51.48;;
70077;Laerm;57448;51.490;5.436;2022-12-18T01:45:48;35.41;32.23;39.33;;
70077;Laerm;57448;51.490;5.436;2022-12-18T01:48:39;35.12;32.34;41.86;;
70077;Laerm;57448;51.490;5.436;2022-12-18T01:51:31;35.15;32.22;40.88;;
70077;Laerm;57448;51.490;5.436;2022-12-18T01:54:22;35.94;32.50;42.38;;
70077;Laerm;57448;51.490;5.436;2022-12-18T01:57:13;36.93;32.67;43.59;;
70077;Laerm;57448;51.490;5.436;2022-12-18T02:00:05;36.27;32.75;51.71;;
70077;Laerm;57448;51.490;5.436;2022-12-18T02:02:56;35.63;32.08;41.35;;
70077;Laerm;57448;51.490;5.436;2022-12-18T02:05:48;36.58;32.07;49.12;;
70077;Laerm;57448;51.490;5.436;2022-12-18T02:08:45;35.87;32.34;53.55;;
70077;Laerm;57448;51.490;5.436;2022-12-18T02:11:40;35.93;32.55;41.90;;
70077;Laerm;57448;51.490;5.436;2022-12-18T02:14:33;35.33;31.73;41.19;;
70077;Laerm;57448;51.490;5.436;2022-12-18T02:17:29;35.43;32.12;41.99;;
70077;Laerm;57448;51.490;5.436;2022-12-18T02:20:32;35.51;31.89;40.74;;
70077;Laerm;57448;51.490;5.436;2022-12-18T02:23:40;35.43;32.06;44.94;;
70077;Laerm;57448;51.490;5.436;2022-12-18T02:26:35;34.52;31.64;44.86;;
70077;Laerm;57448;51.490;5.436;2022-12-18T02:29:28;34.83;31.91;41.30;;
70077;Laerm;57448;51.490;5.436;2022-12-18T02:32:22;35.94;32.46;42.42;;
70077;Laerm;57448;51.490;5.436;2022-12-18T02:35:14;35.64;31.47;41.19;;
70077;Laerm;57448;51.490;5.436;2022-12-18T02:38:06;34.98;31.53;41.39;;
70077;Laerm;57448;51.490;5.436;2022-12-18T02:40:57;34.98;32.02;39.24;;
70077;Laerm;57448;51.490;5.436;2022-12-18T02:43:52;35.26;32.19;40.51;;
70077;Laerm;57448;51.490;5.436;2022-12-18T02:46:46;34.68;31.39;41.05;;
70077;Laerm;57448;51.490;5.436;2022-12-18T02:49:39;35.23;31.80;46.29;;
70077;Laerm;57448;51.490;5.436;2022-12-18T02:52:35;35.23;31.71;41.05;;
70077;Laerm;57448;51.490;5.436;2022-12-18T02:55:32;35.69;32.27;43.66;;
70077;Laerm;57448;51.490;5.436;2022-12-18T02:58:26;34.63;31.58;40.42;;
70077;Laerm;57448;51.490;5.436;2022-12-18T03:01:21;34.58;31.20;43.31;;
70077;Laerm;57448;51.490;5.436;2022-12-18T03:04:16;35.75;31.90;41.10;;
70077;Laerm;57448;51.490;5.436;2022-12-18T03:07:09;35.46;32.17;41.49;;
70077;Laerm;57448;51.490;5.436;2022-12-18T03:10:02;36.59;32.45;41.29;;
70077;Laerm;57448;51.490;5.436;2022-12-18T03:12:54;35.55;32.50;39.74;;
70077;Laerm;57448;51.490;5.436;2022-12-18T03:15:47;35.64;32.23;44.74;;
70077;Laerm;57448;51.490;5.436;2022-12-18T03:18:42;35.90;32.50;43.49;;
70077;Laerm;57448;51.490;5.436;2022-12-18T03:21:36;35.82;32.38;40.98;;
70077;Laerm;57448;51.490;5.436;2022-12-18T03:24:28;35.03;32.09;42.05;;
70077;Laerm;57448;51.490;5.436;2022-12-18T03:27:20;35.60;32.42;41.57;;
70077;Laerm;57448;51.490;5.436;2022-12-18T03:30:12;36.89;32.90;43.72;;
70077;Laerm;57448;51.490;5.436;2022-12-18T03:33:05;35.63;31.96;42.39;;
70077;Laerm;57448;51.490;5.436;2022-12-18T03:35:57;39.83;32.71;48.39;;
70077;Laerm;57448;51.490;5.436;2022-12-18T03:38:48;36.05;33.01;41.19;;
70077;Laerm;57448;51.490;5.436;2022-12-18T03:41:40;36.14;32.43;43.68;;
70077;Laerm;57448;51.490;5.436;2022-12-18T03:44:35;36.20;33.24;41.38;;
70077;Laerm;57448;51.490;5.436;2022-12-18T03:47:29;36.73;32.32;43.61;;
70077;Laerm;57448;51.490;5.436;2022-12-18T03:50:22;36.15;32.29;42.85;;
70077;Laerm;57448;51.490;5.436;2022-12-18T03:53:20;36.09;32.77;41.40;;
70077;Laerm;57448;51.490;5.436;2022-12-18T03:56:14;35.47;31.44;42.31;;
70077;Laerm;57448;51.490;5.436;2022-12-18T03:59:06;34.79;31.56;41.92;;
70077;Laerm;57448;51.490;5.436;2022-12-18T04:01:58;36.73;31.53;59.34;;
70077;Laerm;57448;51.490;5.436;2022-12-18T04:04:50;34.98;31.79;42.78;;
70077;Laerm;57448;51.490;5.436;2022-12-18T04:07:42;35.52;31.95;43.67;;
70077;Laerm;57448;51.490;5.436;2022-12-18T04:10:35;37.06;31.94;45.97;;
70077;Laerm;57448;51.490;5.436;2022-12-18T04:13:27;36.05;32.03;48.82;;
70077;Laerm;57448;51.490;5.436;2022-12-18T04:16:18;36.06;32.06;46.66;;
70077;Laerm;57448;51.490;5.436;2022-12-18T04:19:09;35.06;31.30;41.69;;
70077;Laerm;57448;51.490;5.436;2022-12-18T04:22:00;36.01;32.69;42.14;;
70077;Laerm;57448;51.490;5.436;2022-12-18T04:24:50;35.61;32.33;40.94;;
70077;Laerm;57448;51.490;5.436;2022-12-18T04:27:42;36.25;32.41;44.95;;
70077;Laerm;57448;51.490;5.436;2022-12-18T04:30:33;36.24;32.68;40.98;;
70077;Laerm;57448;51.490;5.436;2022-12-18T04:33:24;36.75;32.98;56.71;;
70077;Laerm;57448;51.490;5.436;2022-12-18T04:36:14;36.91;33.01;42.91;;
70077;Laerm;57448;51.490;5.436;2022-12-18T04:39:05;36.15;32.57;42.18;;
70077;Laerm;57448;51.490;5.436;2022-12-18T04:41:55;37.49;32.66;60.52;;
70077;Laerm;57448;51.490;5.436;2022-12-18T04:44:47;35.56;32.10;41.49;;
70077;Laerm;57448;51.490;5.436;2022-12-18T04:47:38;36.15;31.94;42.00;;
70077;Laerm;57448;51.490;5.436;2022-12-18T04:50:29;36.77;33.01;43.81;;
70077;Laerm;57448;51.490;5.436;2022-12-18T04:53:20;37.60;33.02;45.14;;
70077;Laerm;57448;51.490;5.436;2022-12-18T04:56:11;36.06;32.69;41.62;;
70077;Laerm;57448;51.490;5.436;2022-12-18T04:59:02;36.77;32.99;41.71;;
70077;Laerm;57448;51.490;5.436;2022-12-18T05:01:54;36.00;32.37;45.13;;
70077;Laerm;57448;51.490;5.436;2022-12-18T05:04:45;36.68;32.36;53.19;;
70077;Laerm;57448;51.490;5.436;2022-12-18T05:07:35;36.18;32.57;42.12;;
70077;Laerm;57448;51.490;5.436;2022-12-18T05:10:26;37.60;33.00;46.99;;
70077;Laerm;57448;51.490;5.436;2022-12-18T05:13:17;36.48;32.26;42.72;;
70077;Laerm;57448;51.490;5.436;2022-12-18T05:16:07;36.39;32.53;43.52;;
70077;Laerm;57448;51.490;5.436;2022-12-18T05:18:59;36.53;32.43;47.36;;
70077;Laerm;57448;51.490;5.436;2022-12-18T05:21:50;37.40;33.69;42.03;;
70077;Laerm;57448;51.490;5.436;2022-12-18T05:24:41;36.50;32.86;46.69;;
70077;Laerm;57448;51.490;5.436;2022-12-18T05:27:31;37.48;33.70;45.44;;
70077;Laerm;57448;51.490;5.436;2022-12-18T05:30:22;38.57;33.57;48.73;;
70077;Laerm;57448;51.490;5.436;2022-12-18T05:33:13;37.68;33.57;44.63;;
70077;Laerm;57448;51.490;5.436;2022-12-18T05:36:06;36.77;33.15;42.13;;
70077;Laerm;57448;51.490;5.436;2022-12-18T05:38:57;38.72;33.62;44.79;;
70077;Laerm;57448;51.490;5.436;2022-12-18T05:41:47;37.98;34.40;43.96;;
70077;Laerm;57448;51.490;5.436;2022-12-18T05:44:38;37.73;33.59;43.88;;
70077;Laerm;57448;51.490;5.436;2022-12-18T05:47:29;37.53;33.69;44.38;;
70077;Laerm;57448;51.490;5.436;2022-12-18T05:50:19;38.34;33.75;44.68;;
70077;Laerm;57448;51.490;5.436;2022-12-18T05:53:12;37.92;34.02;42.81;;
70077;Laerm;57448;51.490;5.436;2022-12-18T05:56:03;37.97;34.11;42.77;;
70077;Laerm;57448;51.490;5.436;2022-12-18T05:58:54;37.23;32.98;47.50;;
70077;Laerm;57448;51.490;5.436;2022-12-18T06:01:45;37.60;32.95;46.11;;
70077;Laerm;57448;51.490;5.436;2022-12-18T06:04:35;36.87;33.74;42.37;;
70077;Laerm;57448;51.490;5.436;2022-12-18T06:07:26;37.36;33.23;43.48;;
70077;Laerm;57448;51.490;5.436;2022-12-18T06:10:18;38.31;33.88;44.81;;
70077;Laerm;57448;51.490;5.436;2022-12-18T06:13:09;37.94;33.53;43.03;;
70077;Laerm;57448;51.490;5.436;2022-12-18T06:16:01;37.63;33.61;43.48;;
70077;Laerm;57448;51.490;5.436;2022-12-18T06:18:52;54.92;34.67;68.39;;
70077;Laerm;57448;51.490;5.436;2022-12-18T06:21:42;38.54;34.80;45.48;;
70077;Laerm;57448;51.490;5.436;2022-12-18T06:24:33;38.20;35.09;44.46;;
70077;Laerm;57448;51.490;5.436;2022-12-18T06:27:25;37.93;34.09;43.83;;
70077;Laerm;57448;51.490;5.436;2022-12-18T06:30:16;37.63;33.99;45.60;;
70077;Laerm;57448;51.490;5.436;2022-12-18T06:33:06;37.83;34.72;41.65;;
70077;Laerm;57448;51.490;5.436;2022-12-18T06:35:59;38.29;35.03;44.02;;
70077;Laerm;57448;51.490;5.436;2022-12-18T06:38:50;41.89;35.56;53.60;;
70077;Laerm;57448;51.490;5.436;2022-12-18T06:41:41;40.86;35.61;49.14;;
70077;Laerm;57448;51.490;5.436;2022-12-18T06:44:33;39.43;36.22;44.19;;
70077;Laerm;57448;51.490;5.436;2022-12-18T06:47:23;39.31;35.50;44.90;;
70077;Laerm;57448;51.490;5.436;2022-12-18T06:50:14;38.59;34.82;43.31;;
70077;Laerm;57448;51.490;5.436;2022-12-18T06:53:05;41.98;35.62;53.08;;
70077;Laerm;57448;51.490;5.436;2022-12-18T06:55:59;40.71;35.63;63.57;;
70077;Laerm;57448;51.490;5.436;2022-12-18T06:58:50;41.68;34.73;59.32;;
70077;Laerm;57448;51.490;5.436;2022-12-18T07:01:42;40.19;34.46;63.04;;
70077;Laerm;57448;51.490;5.436;2022-12-18T07:04:32;46.90;35.62;67.66;;
70077;Laerm;57448;51.490;5.436;2022-12-18T07:07:23;38.89;34.68;59.10;;
70077;Laerm;57448;51.490;5.436;2022-12-18T07:10:14;39.89;34.82;61.22;;
70077;Laerm;57448;51.490;5.436;2022-12-18T07:13:05;46.84;35.68;62.40;;
70077;Laerm;57448;51.490;5.436;2022-12-18T07:15:55;39.08;35.84;58.14;;
70077;Laerm;57448;51.490;5.436;2022-12-18T07:18:54;41.23;35.39;69.49;;
70077;Laerm;57448;51.490;5.436;2022-12-18T07:21:45;45.72;36.93;71.50;;
70077;Laerm;57448;51.490;5.436;2022-12-18T07:24:36;46.98;36.65;74.81;;
70077;Laerm;57448;51.490;5.436;2022-12-18T07:27:26;39.66;36.16;49.01;;
70077;Laerm;57448;51.490;5.436;2022-12-18T07:30:17;46.64;37.18;59.44;;
70077;Laerm;57448;51.490;5.436;2022-12-18T07:33:08;40.00;35.48;46.82;;
70077;Laerm;57448;51.490;5.436;2022-12-18T07:36:00;40.01;36.37;53.92;;
70077;Laerm;57448;51.490;5.436;2022-12-18T07:38:52;43.11;36.46;68.12;;
70077;Laerm;57448;51.490;5.436;2022-12-18T07:41:43;45.89;37.48;61.50;;
70077;Laerm;57448;51.490;5.436;2022-12-18T07:44:53;41.87;36.84;58.73;;
70077;Laerm;57448;51.490;5.436;2022-12-18T07:47:44;40.93;36.22;55.84;;
70077;Laerm;57448;51.490;5.436;2022-12-18T07:50:34;40.79;36.15;49.58;;
70077;Laerm;57448;51.490;5.436;2022-12-18T07:53:26;40.12;36.62;60.78;;
70077;Laerm;57448;51.490;5.436;2022-12-18T07:56:17;39.85;36.11;47.57;;
70077;Laerm;57448;51.490;5.436;2022-12-18T07:59:08;40.57;36.64;60.82;;
70077;Laerm;57448;51.490;5.436;2022-12-18T08:01:58;47.33;36.69;61.10;;
70077;Laerm;57448;51.490;5.436;2022-12-18T08:04:49;41.44;37.37;63.48;;
70077;Laerm;57448;51.490;5.436;2022-12-18T08:07:40;40.50;36.54;54.34;;
70077;Laerm;57448;51.490;5.436;2022-12-18T08:10:32;41.00;37.32;49.09;;
70077;Laerm;57448;51.490;5.436;2022-12-18T08:13:22;46.89;36.93;65.62;;
70077;Laerm;57448;51.490;5.436;2022-12-18T08:16:13;41.34;37.47;60.90;;
70077;Laerm;57448;51.490;5.436;2022-12-18T08:19:04;42.62;37.45;60.78;;
70077;Laerm;57448;51.490;5.436;2022-12-18T08:21:54;41.18;38.15;52.96;;
70077;Laerm;57448;51.490;5.436;2022-12-18T08:24:46;42.08;37.63;50.46;;
70077;Laerm;57448;51.490;5.436;2022-12-18T08:27:38;41.65;37.32;51.94;;
70077;Laerm;57448;51.490;5.436;2022-12-18T08:30:28;47.01;38.14;62.08;;
70077;Laerm;57448;51.490;5.436;2022-12-18T08:33:19;40.84;37.63;55.97;;
70077;Laerm;57448;51.490;5.436;2022-12-18T08:36:10;44.42;37.90;58.55;;
70077;Laerm;57448;51.490;5.436;2022-12-18T08:39:01;48.32;36.84;65.50;;
70077;Laerm;57448;51.490;5.436;2022-12-18T08:41:51;41.89;37.84;58.38;;
70077;Laerm;57448;51.490;5.436;2022-12-18T08:44:57;48.63;38.58;67.11;;
70077;Laerm;57448;51.490;5.436;2022-12-18T08:47:48;41.71;38.19;52.17;;
70077;Laerm;57448;51.490;5.436;2022-12-18T08:50:39;41.88;38.74;53.02;;
70077;Laerm;57448;51.490;5.436;2022-12-18T08:53:29;42.88;38.25;57.83;;
70077;Laerm;57448;51.490;5.436;2022-12-18T08:56:20;42.62;38.74;51.73;;
70077;Laerm;57448;51.490;5.436;2022-12-18T08:59:11;42.04;38.42;56.18;;
70077;Laerm;57448;51.490;5.436;2022-12-18T09:02:03;43.80;38.62;57.24;;
70077;Laerm;57448;51.490;5.436;2022-12-18T09:04:53;42.87;38.51;59.55;;
70077;Laerm;57448;51.490;5.436;2022-12-18T09:07:44;42.23;38.01;56.28;;
70077;Laerm;57448;51.490;5.436;2022-12-18T09:10:40;45.33;38.67;66.68;;
70077;Laerm;57448;51.490;5.436;2022-12-18T09:13:31;42.40;38.57;51.21;;
70077;Laerm;57448;51.490;5.436;2022-12-18T09:16:20;42.13;38.09;59.10;;
70077;Laerm;57448;51.490;5.436;2022-12-18T09:19:11;48.54;38.21;74.90;;
70077;Laerm;57448;51.490;5.436;2022-12-18T09:22:00;42.38;37.82;58.83;;
70077;Laerm;57448;51.490;5.436;2022-12-18T09:24:49;42.68;37.89;51.61;;
70077;Laerm;57448;51.490;5.436;2022-12-18T09:27:38;40.72;37.65;46.74;;
70077;Laerm;57448;51.490;5.436;2022-12-18T09:30:27;48.04;37.77;63.23;;
70077;Laerm;57448;51.490;5.436;2022-12-18T09:33:16;42.97;38.60;60.75;;
70077;Laerm;57448;51.490;5.436;2022-12-18T09:36:08;49.53;39.12;62.74;;
70077;Laerm;57448;51.490;5.436;2022-12-18T09:38:58;43.30;39.06;54.12;;
70077;Laerm;57448;51.490;5.436;2022-12-18T09:41:47;42.42;38.48;48.71;;
70077;Laerm;57448;51.490;5.436;2022-12-18T09:44:41;44.89;38.54;59.99;;
70077;Laerm;57448;51.490;5.436;2022-12-18T09:47:34;48.60;38.95;61.30;;
70077;Laerm;57448;51.490;5.436;2022-12-18T09:50:26;43.66;38.16;57.02;;
70077;Laerm;57448;51.490;5.436;2022-12-18T09:53:20;41.96;38.74;55.44;;
70077;Laerm;57448;51.490;5.436;2022-12-18T09:56:12;42.41;38.33;55.36;;
70077;Laerm;57448;51.490;5.436;2022-12-18T09:59:04;43.65;39.07;64.89;;
70077;Laerm;57448;51.490;5.436;2022-12-18T10:01:54;45.38;39.30;73.52;;
70077;Laerm;57448;51.490;5.436;2022-12-18T10:04:43;42.27;39.28;52.86;;
70077;Laerm;57448;51.490;5.436;2022-12-18T10:07:34;43.28;38.95;61.82;;
70077;Laerm;57448;51.490;5.436;2022-12-18T10:10:32;42.69;39.04;59.31;;
70077;Laerm;57448;51.490;5.436;2022-12-18T10:13:23;42.73;39.76;53.51;;
70077;Laerm;57448;51.490;5.436;2022-12-18T10:16:16;42.28;38.52;60.87;;
70077;Laerm;57448;51.490;5.436;2022-12-18T10:19:11;48.83;39.46;62.26;;
70077;Laerm;57448;51.490;5.436;2022-12-18T10:22:09;42.79;39.10;53.63;;
70077;Laerm;57448;51.490;5.436;2022-12-18T10:25:00;47.13;40.15;59.93;;
70077;Laerm;57448;51.490;5.436;2022-12-18T10:27:53;46.57;39.24;62.84;;
70077;Laerm;57448;51.490;5.436;2022-12-18T10:30:43;45.97;39.42;63.93;;
70077;Laerm;57448;51.490;5.436;2022-12-18T10:33:32;50.08;39.10;64.88;;
70077;Laerm;57448;51.490;5.436;2022-12-18T10:36:22;43.42;38.36;63.22;;
70077;Laerm;57448;51.490;5.436;2022-12-18T10:39:16;42.78;39.54;57.46;;
70077;Laerm;57448;51.490;5.436;2022-12-18T10:42:09;41.91;38.51;53.82;;
70077;Laerm;57448;51.490;5.436;2022-12-18T10:45:03;43.63;39.23;69.79;;
70077;Laerm;57448;51.490;5.436;2022-12-18T10:47:52;42.56;39.63;47.65;;
70077;Laerm;57448;51.490;5.436;2022-12-18T10:50:41;47.34;39.11;62.03;;
70077;Laerm;57448;51.490;5.436;2022-12-18T10:53:36;42.70;39.44;54.37;;
70077;Laerm;57448;51.490;5.436;2022-12-18T10:56:26;42.89;39.92;55.95;;
70077;Laerm;57448;51.490;5.436;2022-12-18T10:59:16;42.65;39.16;52.99;;
70077;Laerm;57448;51.490;5.436;2022-12-18T11:02:07;42.83;39.38;48.66;;
70077;Laerm;57448;51.490;5.436;2022-12-18T11:05:22;42.61;39.80;51.58;;
70077;Laerm;57448;51.490;5.436;2022-12-18T11:08:19;44.99;39.62;56.69;;
70077;Laerm;57448;51.490;5.436;2022-12-18T11:11:15;42.52;39.49;51.42;;
70077;Laerm;57448;51.490;5.436;2022-12-18T11:14:12;42.75;38.58;55.35;;
70077;Laerm;57448;51.490;5.436;2022-12-18T11:17:03;49.55;39.49;64.79;;
70077;Laerm;57448;51.490;5.436;2022-12-18T11:19:54;42.26;38.57;64.40;;
70077;Laerm;57448;51.490;5.436;2022-12-18T11:22:43;43.22;39.08;62.93;;
70077;Laerm;57448;51.490;5.436;2022-12-18T11:25:50;42.95;39.23;57.06;;
70077;Laerm;57448;51.490;5.436;2022-12-18T11:28:40;44.20;40.39;51.80;;
70077;Laerm;57448;51.490;5.436;2022-12-18T11:31:30;47.31;38.81;67.11;;
70077;Laerm;57448;51.490;5.436;2022-12-18T11:34:22;42.11;39.19;53.41;;
70077;Laerm;57448;51.490;5.436;2022-12-18T11:37:16;45.16;39.05;63.73;;
70077;Laerm;57448;51.490;5.436;2022-12-18T11:40:09;43.96;39.26;52.74;;
70077;Laerm;57448;51.490;5.436;2022-12-18T11:43:02;42.34;39.21;55.33;;
70077;Laerm;57448;51.490;5.436;2022-12-18T11:45:56;42.53;39.05;61.02;;
70077;Laerm;57448;51.490;5.436;2022-12-18T11:48:48;45.02;38.93;56.05;;
70077;Laerm;57448;51.490;5.436;2022-12-18T11:51:41;51.55;41.17;64.14;;
70077;Laerm;57448;51.490;5.436;2022-12-18T11:54:34;50.54;41.43;63.03;;
70077;Laerm;57448;51.490;5.436;2022-12-18T11:57:27;46.94;41.06;64.68;;
70077;Laerm;57448;51.490;5.436;2022-12-18T12:00:18;52.19;39.47;79.67;;
70077;Laerm;57448;51.490;5.436;2022-12-18T12:03:18;41.80;38.55;55.80;;
70077;Laerm;57448;51.490;5.436;2022-12-18T12:06:10;41.37;38.07;51.29;;
70077;Laerm;57448;51.490;5.436;2022-12-18T12:09:08;41.91;38.58;56.51;;
70077;Laerm;57448;51.490;5.436;2022-12-18T12:12:07;49.61;39.70;65.50;;
70077;Laerm;57448;51.490;5.436;2022-12-18T12:15:02;47.77;39.30;61.67;;
70077;Laerm;57448;51.490;5.436;2022-12-18T12:17:58;44.83;39.79;60.53;;
70077;Laerm;57448;51.490;5.436;2022-12-18T12:20:53;48.27;39.37;69.79;;
70077;Laerm;57448;51.490;5.436;2022-12-18T12:23:49;53.56;38.96;81.06;;
70077;Laerm;57448;51.490;5.436;2022-12-18T12:26:45;41.98;38.38;61.46;;
70077;Laerm;57448;51.490;5.436;2022-12-18T12:29:45;41.97;38.57;56.22;;
70077;Laerm;57448;51.490;5.436;2022-12-18T12:32:43;50.86;38.85;71.86;;
70077;Laerm;57448;51.490;5.436;2022-12-18T12:35:38;42.31;38.84;65.50;;
70077;Laerm;57448;51.490;5.436;2022-12-18T12:38:34;42.91;39.42;54.26;;
70077;Laerm;57448;51.490;5.436;2022-12-18T12:41:26;49.20;39.91;64.36;;
70077;Laerm;57448;51.490;5.436;2022-12-18T12:44:39;43.60;39.65;55.44;;
70077;Laerm;57448;51.490;5.436;2022-12-18T12:47:35;44.32;39.80;64.03;;
70077;Laerm;57448;51.490;5.436;2022-12-18T12:50:26;44.06;39.99;70.29;;
70077;Laerm;57448;51.490;5.436;2022-12-18T12:53:26;46.47;40.29;67.30;;
70077;Laerm;57448;51.490;5.436;2022-12-18T12:56:19;44.93;39.86;60.01;;
70077;Laerm;57448;51.490;5.436;2022-12-18T12:59:13;43.50;39.68;59.85;;
70077;Laerm;57448;51.490;5.436;2022-12-18T13:02:05;43.35;40.24;57.02;;
70077;Laerm;57448;51.490;5.436;2022-12-18T13:05:02;45.06;39.73;61.83;;
70077;Laerm;57448;51.490;5.436;2022-12-18T13:07:55;48.42;39.49;61.30;;
70077;Laerm;57448;51.490;5.436;2022-12-18T13:10:48;48.05;40.14;61.86;;
70077;Laerm;57448;51.490;5.436;2022-12-18T13:13:47;50.08;39.70;66.16;;
70077;Laerm;57448;51.490;5.436;2022-12-18T13:16:37;43.32;39.73;55.53;;
70077;Laerm;57448;51.490;5.436;2022-12-18T13:19:28;43.12;39.78;51.93;;
70077;Laerm;57448;51.490;5.436;2022-12-18T13:22:22;50.29;40.80;68.35;;
70077;Laerm;57448;51.490;5.436;2022-12-18T13:28:22;42.67;39.64;52.92;;
70077;Laerm;57448;51.490;5.436;2022-12-18T13:31:15;42.66;39.19;59.89;;
70077;Laerm;57448;51.490;5.436;2022-12-18T13:34:27;44.17;39.46;53.90;;
70077;Laerm;57448;51.490;5.436;2022-12-18T13:43:43;41.84;38.19;54.11;;
70077;Laerm;57448;51.490;5.436;2022-12-18T13:46:42;41.63;38.44;64.92;;
70077;Laerm;57448;51.490;5.436;2022-12-18T13:49:37;50.63;38.41;65.47;;
70077;Laerm;57448;51.490;5.436;2022-12-18T13:52:28;42.83;38.94;66.71;;
70077;Laerm;57448;51.490;5.436;2022-12-18T13:55:23;42.36;38.32;57.10;;
70077;Laerm;57448;51.490;5.436;2022-12-18T13:58:14;43.57;39.60;60.79;;
70077;Laerm;57448;51.490;5.436;2022-12-18T14:01:05;42.70;38.76;54.11;;
70077;Laerm;57448;51.490;5.436;2022-12-18T14:04:11;42.58;38.41;50.21;;
70077;Laerm;57448;51.490;5.436;2022-12-18T14:07:04;41.72;38.00;55.82;;
70077;Laerm;57448;51.490;5.436;2022-12-18T14:09:55;41.73;38.79;60.06;;
70077;Laerm;57448;51.490;5.436;2022-12-18T14:12:47;49.58;39.26;65.30;;
70077;Laerm;57448;51.490;5.436;2022-12-18T14:15:48;50.93;40.54;66.29;;
70077;Laerm;57448;51.490;5.436;2022-12-18T14:18:42;46.99;41.21;62.64;;
70077;Laerm;57448;51.490;5.436;2022-12-18T14:21:34;43.03;39.14;53.50;;
70077;Laerm;57448;51.490;5.436;2022-12-18T14:24:26;51.42;38.92;64.78;;
70077;Laerm;57448;51.490;5.436;2022-12-18T14:27:21;62.11;39.35;76.08;;
70077;Laerm;57448;51.490;5.436;2022-12-18T14:30:25;48.41;38.67;62.31;;
70077;Laerm;57448;51.490;5.436;2022-12-18T14:33:17;42.53;38.17;55.07;;
70077;Laerm;57448;51.490;5.436;2022-12-18T14:36:14;41.83;38.52;58.75;;
70077;Laerm;57448;51.490;5.436;2022-12-18T14:39:11;41.75;37.82;68.24;;
70077;Laerm;57448;51.490;5.436;2022-12-18T14:42:11;49.79;39.11;66.43;;
70077;Laerm;57448;51.490;5.436;2022-12-18T14:48:13;51.91;39.30;64.79;;
70077;Laerm;57448;51.490;5.436;2022-12-18T14:51:06;45.32;38.54;59.78;;
70077;Laerm;57448;51.490;5.436;2022-12-18T14:54:03;45.11;38.36;55.71;;
70077;Laerm;57448;51.490;5.436;2022-12-18T14:56:59;45.11;38.22;61.72;;
70077;Laerm;57448;51.490;5.436;2022-12-18T14:59:52;41.80;38.47;63.85;;
70077;Laerm;57448;51.490;5.436;2022-12-18T15:02:43;47.00;37.95;62.61;;
70077;Laerm;57448;51.490;5.436;2022-12-18T15:05:35;49.76;37.49;64.53;;
70077;Laerm;57448;51.490;5.436;2022-12-18T15:08:34;40.89;37.95;47.28;;
70077;Laerm;57448;51.490;5.436;2022-12-18T15:11:26;41.31;38.13;50.63;;
70077;Laerm;57448;51.490;5.436;2022-12-18T15:14:30;43.98;37.52;55.72;;
70077;Laerm;57448;51.490;5.436;2022-12-18T15:17:23;42.92;37.89;52.25;;
70077;Laerm;57448;51.490;5.436;2022-12-18T15:20:14;41.68;37.83;59.46;;
70077;Laerm;57448;51.490;5.436;2022-12-18T15:23:05;41.55;37.33;65.07;;
70077;Laerm;57448;51.490;5.436;2022-12-18T15:25:55;45.39;37.88;67.42;;
70077;Laerm;57448;51.490;5.436;2022-12-18T15:28:47;44.22;37.81;54.35;;
70077;Laerm;57448;51.490;5.436;2022-12-18T15:31:39;41.99;37.01;63.46;;
70077;Laerm;57448;51.490;5.436;2022-12-18T15:34:32;40.49;37.55;45.54;;
70077;Laerm;57448;51.490;5.436;2022-12-18T15:37:23;49.46;38.00;67.16;;
70077;Laerm;57448;51.490;5.436;2022-12-18T15:40:14;50.40;38.64;66.96;;
70077;Laerm;57448;51.490;5.436;2022-12-18T15:43:05;44.00;37.98;54.27;;
70077;Laerm;57448;51.490;5.436;2022-12-18T15:46:16;40.03;37.08;57.16;;
70077;Laerm;57448;51.490;5.436;2022-12-18T15:49:07;52.53;37.68;80.80;;
70077;Laerm;57448;51.490;5.436;2022-12-18T15:51:59;41.01;37.33;56.53;;
70077;Laerm;57448;51.490;5.436;2022-12-18T15:54:52;41.03;38.07;61.40;;
70077;Laerm;57448;51.490;5.436;2022-12-18T15:58:00;40.58;36.99;52.42;;
70077;Laerm;57448;51.490;5.436;2022-12-18T16:00:50;42.08;37.35;63.55;;
70077;Laerm;57448;51.490;5.436;2022-12-18T16:03:41;40.29;37.19;49.91;;
70077;Laerm;57448;51.490;5.436;2022-12-18T16:06:32;40.61;36.91;64.10;;
70077;Laerm;57448;51.490;5.436;2022-12-18T16:09:24;50.35;37.29;66.64;;
70077;Laerm;57448;51.490;5.436;2022-12-18T16:12:15;41.71;37.31;68.41;;
70077;Laerm;57448;51.490;5.436;2022-12-18T16:15:07;50.85;38.11;66.07;;
70077;Laerm;57448;51.490;5.436;2022-12-18T16:18:00;49.31;37.67;65.16;;